Dati Storici

Data ora Umidita' aria (%) Temperatura aria (°C) Rad globale (W/m²) Gonioanemometro (°) Tacoanemometro (m/s) Pioggia (mm)
09-11-2012 00:10 88.9 % 8.652 2.517 307.312 0.469 0
09-11-2012 00:00 88.7 % 8.306 2.171 281.013 -0.006 0
08-11-2012 23:50 88.3 % 8.197 1.979 226.276 0.378 0
08-11-2012 23:40 88 % 8.187 1.773 235.982 0.205 0
08-11-2012 23:30 87.3 % 8.236 2.145 314.122 -0 0
08-11-2012 23:20 86.2 % 8.27 1.245 267.466 0.226 0
08-11-2012 23:10 86.5 % 8.611 1.386 244.506 0.241 0
08-11-2012 23:00 85.5 % 8.611 1.335 248.946 0.306 0
08-11-2012 22:50 84.4 % 8.666 1.194 238.931 0.049 0
08-11-2012 22:40 83.2 % 8.994 0.93 259.059 0.105 0
08-11-2012 22:30 83.5 % 9.491 1.161 231.072 0.98 0
08-11-2012 22:20 83.2 % 9.507 1.341 243.169 0.762 0
08-11-2012 22:10 83.5 % 9.689 1.826 240.984 0.831 0
08-11-2012 22:00 83.5 % 9.044 1.852 310.027 0.373 0
08-11-2012 21:50 83.3 % 9.284 1.839 158.534 -0.01 0
08-11-2012 21:40 83.3 % 9.48 1.865 257.782 0.337 0
08-11-2012 21:30 82.3 % 9.372 2.211 234.867 0.196 0
08-11-2012 21:20 81.9 % 9.492 2.505 147.245 0.268 0
08-11-2012 21:10 81.3 % 9.733 2.159 163.508 0.505 0
08-11-2012 21:00 81.6 % 10.066 2.685 270.549 0.381 0

I dati sono presentati in modo automatico a scopo informativo. In seguito a verifica i dati possono subire modifiche o essere invalidati e non riportati negli archivi definitivi.